Time;durP1;ratioP1;P1;durP2;ratioP2;P2;SDS_P1;SDS_P2;PMS_P1;PMS_P2;Temp;Humidity;BMP_temperature;BMP_pressure;BME280_temperature;BME280_humidity;BME280_pressure;Samples;Min_cycle;Max_cycle;Signal;HPM_P1;HPM_P2
2022/02/24 00:01:56;;;;;;;1.10;0.50;;;;;;;9.41;100.00;99050.06;5023593;28;20398;-46
2022/02/24 00:04:59;;;;;;;0.17;0.17;;;;;;;9.26;100.00;99041.06;5019254;28;20048;-46
2022/02/24 00:08:03;;;;;;;0.20;0.20;;;;;;;9.21;100.00;99038.97;5023011;28;20052;-46
2022/02/24 00:11:06;;;;;;;0.20;0.20;;;;;;;9.12;100.00;99037.84;5022944;28;20052;-46
2022/02/24 00:14:10;;;;;;;0.20;0.20;;;;;;;9.05;100.00;99009.75;5022598;28;20045;-47
2022/02/24 00:17:13;;;;;;;0.40;0.40;;;;;;;9.03;100.00;99007.44;5021983;28;20041;-46
2022/02/24 00:20:17;;;;;;;2.75;0.47;;;;;;;8.97;100.00;98987.16;5022496;28;20045;-46
2022/02/24 00:23:20;;;;;;;0.10;0.10;;;;;;;8.95;100.00;98994.44;5021549;28;20056;-47
2022/02/24 00:26:23;;;;;;;5.68;0.45;;;;;;;8.86;100.00;98998.13;5020944;28;20049;-46
2022/02/24 00:29:27;;;;;;;0.10;0.00;;;;;;;8.85;100.00;98988.28;5013601;28;20601;-46
2022/02/24 00:32:30;;;;;;;0.20;0.20;;;;;;;8.85;100.00;99002.16;5012780;28;20053;-46
2022/02/24 00:35:33;;;;;;;0.17;0.17;;;;;;;8.89;100.00;98996.41;5013368;28;20057;-47
2022/02/24 00:38:37;;;;;;;0.10;0.10;;;;;;;8.93;100.00;99008.81;5011995;28;20559;-46
2022/02/24 00:41:40;;;;;;;0.15;0.15;;;;;;;8.91;100.00;99016.88;5013095;28;20514;-47
2022/02/24 00:44:43;;;;;;;1.17;1.08;;;;;;;8.98;100.00;99005.38;5012412;28;20056;-46
2022/02/24 00:47:47;;;;;;;0.45;0.45;;;;;;;9.04;100.00;98997.09;5012855;28;20505;-46
2022/02/24 00:50:50;;;;;;;0.20;0.20;;;;;;;8.94;100.00;98993.69;5012435;28;20069;-46
2022/02/24 00:53:54;;;;;;;2.15;1.00;;;;;;;8.99;100.00;98995.78;5023071;28;20056;-46
2022/02/24 00:56:57;;;;;;;0.20;0.20;;;;;;;8.97;100.00;98986.41;5032009;28;20487;-47
2022/02/24 01:00:01;;;;;;;0.30;0.00;;;;;;;8.95;100.00;98994.44;5032611;28;20048;-46
2022/02/24 01:03:05;;;;;;;0.20;0.20;;;;;;;8.94;100.00;98985.34;5032112;28;20052;-47
2022/02/24 01:06:09;;;;;;;0.10;0.10;;;;;;;8.93;100.00;98980.28;5030574;28;20047;-46
2022/02/24 01:09:12;;;;;;;1.60;0.30;;;;;;;8.89;100.00;98996.41;5031510;28;20076;-46
2022/02/24 01:12:15;;;;;;;0.30;0.30;;;;;;;8.87;100.00;98994.09;5032015;28;20056;-46
2022/02/24 01:15:19;;;;;;;0.10;0.10;;;;;;;8.86;100.00;98992.56;5032319;28;20092;-46
2022/02/24 01:18:22;;;;;;;0.30;0.30;;;;;;;8.86;100.00;98984.25;5032129;28;20052;-46
2022/02/24 01:21:27;;;;;;;0.43;0.25;;;;;;;8.94;100.00;98988.13;5032121;28;20060;-46
2022/02/24 01:24:30;;;;;;;0.22;0.22;;;;;;;8.93;100.00;98983.06;5032500;28;20056;-46
2022/02/24 01:27:34;;;;;;;0.22;0.22;;;;;;;8.95;100.00;98975.78;5020418;28;20041;-46
2022/02/24 01:30:37;;;;;;;0.30;0.30;;;;;;;8.91;100.00;98972.44;5022042;28;20060;-46
2022/02/24 01:33:41;;;;;;;0.20;0.20;;;;;;;8.94;100.00;98965.91;5012042;28;20052;-46
2022/02/24 01:36:46;;;;;;;0.20;0.20;;;;;;;9.00;100.00;98941.00;5021659;28;20123;-46
2022/02/24 01:39:49;;;;;;;0.38;0.38;;;;;;;8.99;100.00;98936.69;5021867;28;20045;-47
2022/02/24 01:42:53;;;;;;;0.60;0.60;;;;;;;8.96;100.00;98932.13;5020010;28;20061;-47
2022/02/24 01:45:56;;;;;;;0.10;0.10;;;;;;;8.88;100.00;98925.47;5009196;28;20045;-46
2022/02/24 01:49:00;;;;;;;0.32;0.30;;;;;;;8.82;100.00;98919.84;5021656;28;20048;-46
2022/02/24 01:52:06;;;;;;;0.65;0.55;;;;;;;8.82;100.00;98914.28;5019843;28;20045;-46
2022/02/24 01:55:10;;;;;;;0.10;0.10;;;;;;;8.73;100.00;98919.97;5021615;28;20398;-46
2022/02/24 01:58:17;;;;;;;2.95;0.30;;;;;;;8.74;100.00;98915.97;5006486;28;20060;-46
2022/02/24 02:01:21;;;;;;;1.35;0.20;;;;;;;8.68;100.00;98923.47;5019274;28;20060;-46
2022/02/24 02:04:25;;;;;;;0.20;0.20;;;;;;;8.65;100.00;98910.53;5006986;28;20056;-47
2022/02/24 02:07:29;;;;;;;0.30;0.20;;;;;;;8.63;100.00;98898.38;5021027;28;20052;-47
2022/02/24 02:10:33;;;;;;;0.20;0.13;;;;;;;8.61;100.00;98907.22;5021129;28;20433;-47
2022/02/24 02:13:36;;;;;;;0.15;0.10;;;;;;;8.58;100.00;98899.84;5019516;28;20422;-46
2022/02/24 02:16:47;;;;;;;0.30;0.30;;;;;;;8.56;100.00;98899.56;5020748;28;20052;-47
2022/02/24 02:19:51;;;;;;;0.13;0.13;;;;;;;8.55;100.00;98878.63;5019910;28;20053;-46
2022/02/24 02:22:55;;;;;;;0.20;0.20;;;;;;;8.54;100.00;98865.22;5021724;28;20044;-47
2022/02/24 02:25:58;;;;;;;0.50;0.45;;;;;;;8.48;100.00;98850.53;5019930;28;20065;-46
2022/02/24 02:29:06;;;;;;;0.65;0.60;;;;;;;8.45;100.00;98835.59;5019806;28;20049;-47
2022/02/24 02:32:09;;;;;;;0.10;0.10;;;;;;;8.42;100.00;98846.91;5019677;28;20068;-47
2022/02/24 02:35:13;;;;;;;0.28;0.28;;;;;;;8.38;100.00;98858.25;5022400;28;20638;-47
2022/02/24 02:38:17;;;;;;;0.30;0.30;;;;;;;8.31;100.00;98851.09;5019243;28;20405;-47
2022/02/24 02:41:21;;;;;;;0.50;0.40;;;;;;;8.28;100.00;98843.72;5018677;28;20049;-47
2022/02/24 02:44:25;;;;;;;0.30;0.30;;;;;;;8.25;100.00;98839.13;5020403;28;20504;-50
2022/02/24 02:47:28;;;;;;;0.30;0.30;;;;;;;8.25;100.00;98843.91;5019807;28;20052;-47
2022/02/24 02:50:33;;;;;;;0.10;0.10;;;;;;;8.23;100.00;98843.59;5019577;28;20061;-52
2022/02/24 02:53:37;;;;;;;2.30;0.50;;;;;;;8.26;100.00;98839.91;5016281;28;20570;-48
2022/02/24 02:56:40;;;;;;;6.13;1.05;;;;;;;8.26;100.00;98840.69;5009627;28;20393;-47
2022/02/24 02:59:44;;;;;;;0.20;0.20;;;;;;;8.19;100.00;98831.97;5009898;28;20057;-47
2022/02/24 03:02:47;;;;;;;0.20;0.20;;;;;;;8.18;100.00;98816.59;5010316;28;20460;-47
2022/02/24 03:05:52;;;;;;;0.10;0.10;;;;;;;8.10;100.00;98801.59;5011086;28;20056;-47
2022/02/24 03:08:55;;;;;;;0.82;0.57;;;;;;;8.08;100.00;98801.31;5009877;28;20057;-47
2022/02/24 03:11:59;;;;;;;0.15;0.15;;;;;;;8.03;100.00;98802.00;5010397;28;20056;-47
2022/02/24 03:15:13;;;;;;;0.63;0.30;;;;;;;8.01;100.00;98790.66;5011271;28;20053;-49
2022/02/24 03:18:16;;;;;;;2.05;0.82;;;;;;;7.96;100.00;98799.63;5010238;28;20053;-48
2022/02/24 03:21:20;;;;;;;0.20;0.20;;;;;;;8.01;100.00;98785.09;5010941;28;20172;-47
2022/02/24 03:24:23;;;;;;;0.10;0.10;;;;;;;8.03;100.00;98777.06;5010679;28;20045;-47
2022/02/24 03:27:27;;;;;;;0.10;0.10;;;;;;;8.03;100.00;98777.84;5010012;28;20037;-47
2022/02/24 03:30:32;;;;;;;0.17;0.17;;;;;;;8.01;100.00;98774.00;5010653;28;20125;-47
2022/02/24 03:33:37;;;;;;;0.10;0.10;;;;;;;7.98;100.00;98774.97;5010805;28;20057;-47
2022/02/24 03:36:40;;;;;;;0.52;0.52;;;;;;;7.88;100.00;98771.59;5010830;28;20053;-47
2022/02/24 03:39:44;;;;;;;0.10;0.10;;;;;;;7.86;100.00;98778.84;5021738;28;20052;-47
2022/02/24 03:42:49;;;;;;;0.20;0.20;;;;;;;7.79;100.00;98768.94;5030855;28;20053;-47
2022/02/24 03:45:52;;;;;;;0.10;0.10;;;;;;;7.74;100.00;98760.53;5030530;28;20056;-47
2022/02/24 03:48:55;;;;;;;0.40;0.40;;;;;;;7.75;100.00;98760.06;5028305;28;20477;-47
2022/02/24 03:51:59;;;;;;;0.30;0.30;;;;;;;7.86;100.00;98751.88;5011887;28;20057;-47
2022/02/24 03:55:02;;;;;;;0.20;0.10;;;;;;;7.88;100.00;98748.63;5013430;28;20390;-47
2022/02/24 03:58:06;;;;;;;0.20;0.20;;;;;;;7.88;100.00;98754.19;5014274;28;20049;-47
2022/02/24 04:01:09;;;;;;;0.47;0.40;;;;;;;7.82;100.00;98742.25;5016439;28;20068;-47
2022/02/24 04:04:15;;;;;;;0.10;0.10;;;;;;;7.81;100.00;98735.19;5014022;28;20052;-47
2022/02/24 04:07:18;;;;;;;0.50;0.50;;;;;;;7.79;100.00;98746.75;5013272;28;20053;-47
2022/02/24 04:10:21;;;;;;;1.48;0.65;;;;;;;7.83;100.00;98741.78;5012390;28;20056;-47
2022/02/24 04:13:25;;;;;;;0.10;0.10;;;;;;;7.85;100.00;98744.81;5012465;28;20053;-47
2022/02/24 04:16:28;;;;;;;0.10;0.10;;;;;;;7.85;100.00;98727.41;5012649;28;20498;-47
2022/02/24 04:19:31;;;;;;;0.30;0.30;;;;;;;7.87;100.00;98728.47;5013455;28;20056;-46
2022/02/24 04:22:35;;;;;;;0.15;0.15;;;;;;;7.80;100.00;98725.31;5013159;28;20068;-47
2022/02/24 04:25:38;;;;;;;0.32;0.32;;;;;;;7.73;100.00;98736.84;5012617;28;20053;-47
2022/02/24 04:28:41;;;;;;;0.47;0.47;;;;;;;7.69;100.00;98728.72;5012765;28;20497;-47
2022/02/24 04:31:45;;;;;;;0.20;0.20;;;;;;;7.72;100.00;98724.22;5020189;28;20060;-47
2022/02/24 04:34:48;;;;;;;0.10;0.10;;;;;;;7.73;100.00;98725.75;5033288;28;20052;-47
2022/02/24 04:37:52;;;;;;;0.47;0.47;;;;;;;7.63;100.00;98717.56;5031741;28;20057;-47
2022/02/24 04:40:55;;;;;;;0.20;0.20;;;;;;;7.61;100.00;98717.28;5032803;28;20048;-47
2022/02/24 04:43:59;;;;;;;0.13;0.13;;;;;;;7.55;100.00;98710.16;5032580;28;20064;-47
2022/02/24 04:47:02;;;;;;;15.00;0.60;;;;;;;7.61;100.00;98714.53;5033016;28;20604;-47
2022/02/24 04:50:08;;;;;;;0.20;0.20;;;;;;;7.61;100.00;98722.06;5031699;28;20397;-47
2022/02/24 04:53:12;;;;;;;0.25;0.25;;;;;;;7.67;100.00;98711.81;5013397;28;20053;-47
2022/02/24 04:56:15;;;;;;;0.15;0.15;;;;;;;7.64;100.00;98693.41;5012433;28;20052;-47
2022/02/24 04:59:18;;;;;;;0.15;0.15;;;;;;;7.60;100.00;98695.63;5012788;28;20052;-48
2022/02/24 05:02:22;;;;;;;0.10;0.10;;;;;;;7.62;100.00;98704.94;5011422;28;20048;-47
2022/02/24 05:05:25;;;;;;;0.17;0.17;;;;;;;7.64;100.00;98691.38;5012832;28;20060;-47
2022/02/24 05:08:31;;;;;;;9.27;0.60;;;;;;;7.63;100.00;98695.41;4999499;28;20053;-47
2022/02/24 05:11:34;;;;;;;0.10;0.10;;;;;;;7.58;100.00;98695.31;5023039;28;20060;-47
2022/02/24 05:14:38;;;;;;;0.10;0.10;;;;;;;7.48;100.00;98689.16;5031958;28;20053;-46
2022/02/24 05:17:41;;;;;;;0.95;0.32;;;;;;;7.46;100.00;98693.66;5032484;28;20064;-47
2022/02/24 05:20:44;;;;;;;0.40;0.17;;;;;;;7.46;100.00;98691.66;5028249;28;20425;-47
2022/02/24 05:23:47;;;;;;;0.10;0.00;;;;;;;7.49;100.00;98695.47;5012435;28;20048;-47
2022/02/24 05:26:51;;;;;;;0.10;0.10;;;;;;;7.38;100.00;98689.78;5011043;28;20401;-46
2022/02/24 05:29:55;;;;;;;0.20;0.20;;;;;;;7.34;100.00;98683.66;5012074;28;20072;-47
2022/02/24 05:32:58;;;;;;;0.10;0.10;;;;;;;7.30;100.00;98678.31;5011684;28;20053;-47
2022/02/24 05:36:03;;;;;;;1.52;0.50;;;;;;;7.06;100.00;98679.72;5012483;28;20398;-46
2022/02/24 05:39:07;;;;;;;0.10;0.10;;;;;;;7.00;100.00;98682.41;5012575;28;20418;-46
2022/02/24 05:42:11;;;;;;;0.10;0.10;;;;;;;6.98;100.00;98698.72;5012074;28;20053;-47
2022/02/24 05:45:14;;;;;;;0.20;0.20;;;;;;;6.93;100.00;98702.16;5011762;28;20041;-46
2022/02/24 05:48:17;;;;;;;0.22;0.22;;;;;;;6.84;100.00;98703.03;5012143;28;20064;-46
2022/02/24 05:51:21;;;;;;;0.10;0.10;;;;;;;6.81;100.00;98692.94;5019777;28;20072;-46
2022/02/24 05:54:25;;;;;;;0.20;0.20;;;;;;;6.72;100.00;98692.25;5028193;28;20571;-46
2022/02/24 05:57:28;;;;;;;0.10;0.10;;;;;;;6.67;100.00;98692.94;5031342;28;20509;-46
2022/02/24 06:00:31;;;;;;;0.10;0.10;;;;;;;6.48;100.00;98697.09;5031658;28;20067;-46
2022/02/24 06:03:36;;;;;;;0.20;0.20;;;;;;;6.36;100.00;98687.09;5031739;28;20044;-46
2022/02/24 06:06:39;;;;;;;0.30;0.30;;;;;;;6.30;100.00;98691.75;5031993;28;20505;-46
2022/02/24 06:09:42;;;;;;;0.20;0.20;;;;;;;6.19;100.00;98686.03;5031918;28;20052;-46
2022/02/24 06:12:46;;;;;;;0.10;0.10;;;;;;;6.13;100.00;98678.38;5031772;28;20057;-46
2022/02/24 06:15:49;;;;;;;0.20;0.20;;;;;;;6.05;100.00;98677.22;5030147;28;20044;-46
2022/02/24 06:18:53;;;;;;;0.65;0.45;;;;;;;6.06;100.00;98662.16;5030883;28;20048;-46
2022/02/24 06:21:57;;;;;;;0.10;0.10;;;;;;;5.99;100.00;98672.84;5017605;28;20505;-46
2022/02/24 06:25:00;;;;;;;0.10;0.10;;;;;;;5.99;100.00;98667.31;5010201;28;20076;-46
2022/02/24 06:28:04;;;;;;;0.20;0.20;;;;;;;5.90;100.00;98676.44;5010292;28;20125;-46
2022/02/24 06:31:07;;;;;;;0.10;0.10;;;;;;;5.88;100.00;98676.16;5010239;28;20076;-46
2022/02/24 06:34:10;;;;;;;0.22;0.22;;;;;;;5.82;100.00;98664.19;5011702;28;20057;-46
2022/02/24 06:37:14;;;;;;;12.35;0.40;;;;;;;5.66;100.00;98672.91;5010959;28;20061;-46
2022/02/24 06:40:17;;;;;;;0.10;0.10;;;;;;;5.68;100.00;98681.47;5016552;28;20049;-46
2022/02/24 06:43:22;;;;;;;5.30;1.05;;;;;;;5.69;100.00;98671.97;5010510;28;20053;-47
2022/02/24 06:46:26;;;;;;;12.25;2.65;;;;;;;5.68;100.00;98670.44;5010436;28;20057;-47
2022/02/24 06:49:29;;;;;;;15.50;4.47;;;;;;;5.72;100.00;98653.66;5011035;28;20048;-46
2022/02/24 06:52:33;;;;;;;9.98;2.88;;;;;;;5.73;100.00;98660.72;5026233;28;20052;-46
2022/02/24 06:55:37;;;;;;;12.95;2.28;;;;;;;5.77;100.00;98662.09;5030051;28;20072;-46
2022/02/24 06:58:40;;;;;;;10.73;3.60;;;;;;;5.80;100.00;98665.91;5029907;28;20057;-47
2022/02/24 07:01:44;;;;;;;9.02;1.70;;;;;;;5.85;100.00;98676.31;5029312;28;20056;-47
2022/02/24 07:04:47;;;;;;;1.20;0.65;;;;;;;5.91;100.00;98683.47;5028733;28;20498;-51
2022/02/24 07:07:51;;;;;;;6.75;1.50;;;;;;;5.88;100.00;98681.69;5029184;28;20385;-49
2022/02/24 07:10:54;;;;;;;0.52;0.40;;;;;;;5.90;100.00;98676.44;5029011;28;20057;-47
2022/02/24 07:13:57;;;;;;;0.57;0.57;;;;;;;5.95;100.00;98667.50;5029404;28;20064;-48
2022/02/24 07:17:01;;;;;;;0.45;0.45;;;;;;;5.93;100.00;98661.66;5029705;28;20497;-47
2022/02/24 07:20:05;;;;;;;0.45;0.40;;;;;;;5.95;100.00;98661.97;5029659;28;20051;-47
2022/02/24 07:23:08;;;;;;;1.00;0.65;;;;;;;6.00;100.00;98661.31;5030513;28;20064;-47
2022/02/24 07:26:12;;;;;;;0.65;0.65;;;;;;;6.00;100.00;98653.00;5025798;28;20045;-46
2022/02/24 07:29:16;;;;;;;2.13;0.40;;;;;;;5.97;100.00;98648.44;5014084;28;20049;-47
2022/02/24 07:32:19;;;;;;;3.70;0.60;;;;;;;6.03;100.00;98646.53;5014271;28;20157;-47
2022/02/24 07:35:22;;;;;;;0.65;0.65;;;;;;;6.01;100.00;98649.03;5002101;28;20112;-47
2022/02/24 07:38:25;;;;;;;0.55;0.55;;;;;;;6.07;100.00;98658.19;5013935;28;20044;-47
2022/02/24 07:41:29;;;;;;;3.97;1.13;;;;;;;6.08;100.00;98665.25;5013650;28;20049;-47
2022/02/24 07:44:32;;;;;;;5.30;1.60;;;;;;;6.12;100.00;98659.53;5022059;28;20048;-47
2022/02/24 07:47:35;;;;;;;0.88;0.80;;;;;;;6.16;100.00;98648.28;5033825;28;20052;-47
2022/02/24 07:50:39;;;;;;;0.73;0.25;;;;;;;6.18;100.00;98645.78;5013031;28;20489;-47
2022/02/24 07:53:43;;;;;;;0.20;0.20;;;;;;;6.17;100.00;98638.75;5013831;28;20052;-47
2022/02/24 07:56:46;;;;;;;0.80;0.68;;;;;;;6.11;100.00;98636.63;5013134;28;20049;-46
2022/02/24 07:59:50;;;;;;;0.52;0.52;;;;;;;6.15;100.00;98646.75;5014343;28;20048;-47
2022/02/24 08:02:55;;;;;;;0.80;0.80;;;;;;;6.13;100.00;98653.50;5013375;28;20057;-47
2022/02/24 08:05:59;;;;;;;0.20;0.20;;;;;;;6.08;100.00;98648.66;5013773;28;20057;-47
2022/02/24 08:09:06;;;;;;;0.40;0.20;;;;;;;6.13;100.00;98660.28;5013267;28;20041;-47
2022/02/24 08:15:32;;;;;;;0.10;0.10;;;;;;;6.11;100.00;98647.69;5012849;28;20049;-47
2022/02/24 08:18:36;;;;;;;0.20;0.20;;;;;;;6.13;100.00;98645.22;5013115;28;20053;-48
2022/02/24 08:21:39;;;;;;;0.10;0.10;;;;;;;6.09;100.00;98638.34;5013204;28;20057;-47
2022/02/24 08:24:43;;;;;;;3.35;1.45;;;;;;;6.12;100.00;98640.16;5032419;28;20049;-47
2022/02/24 08:27:47;;;;;;;0.15;0.15;;;;;;;6.10;100.00;98657.25;5032125;28;20044;-47
2022/02/24 08:30:51;;;;;;;0.35;0.35;;;;;;;6.08;100.00;98664.47;5030863;28;20056;-47
2022/02/24 08:33:55;;;;;;;0.22;0.22;;;;;;;6.09;100.00;98666.75;5012409;28;20072;-47
2022/02/24 08:36:59;;;;;;;0.20;0.20;;;;;;;5.97;100.00;98665.03;5011555;28;20537;-47
2022/02/24 08:40:03;;;;;;;0.68;0.20;;;;;;;5.84;100.00;98678.34;5019109;28;20397;-47
2022/02/24 08:43:07;;;;;;;0.22;0.22;;;;;;;5.83;100.00;98682.28;5031185;28;20060;-47
2022/02/24 08:46:10;;;;;;;0.10;0.10;;;;;;;5.70;100.00;98703.84;5032448;28;20128;-47
2022/02/24 08:49:14;;;;;;;0.50;0.50;;;;;;;5.64;100.00;98702.97;5032701;28;20068;-47
2022/02/24 08:52:17;;;;;;;0.20;0.20;;;;;;;5.69;100.00;98710.63;5032470;28;20048;-47
2022/02/24 08:55:21;;;;;;;0.20;0.20;;;;;;;5.78;100.00;98715.34;5030839;28;20048;-47
2022/02/24 08:58:24;;;;;;;0.20;0.20;;;;;;;6.01;100.00;98723.63;5032831;28;20488;-51
2022/02/24 09:01:28;;;;;;;0.20;0.20;;;;;;;6.04;100.00;98716.41;5031967;28;20084;-47
2022/02/24 09:04:31;;;;;;;0.10;0.10;;;;;;;6.15;100.00;98724.88;5018700;28;20068;-47
2022/02/24 09:07:35;;;;;;;0.55;0.55;;;;;;;6.13;100.00;98719.84;5012006;28;20402;-47
2022/02/24 09:10:39;;;;;;;1.38;0.50;;;;;;;6.12;100.00;98714.78;5012663;28;20053;-47
2022/02/24 09:13:43;;;;;;;0.20;0.20;;;;;;;6.12;100.00;98720.31;5013152;28;20049;-47
2022/02/24 09:16:47;;;;;;;1.30;0.57;;;;;;;6.16;100.00;98711.84;5012890;28;20057;-47
2022/02/24 09:19:50;;;;;;;6.07;0.75;;;;;;;6.21;100.00;98711.19;5012501;28;20045;-47
2022/02/24 09:22:53;;;;;;;0.60;0.50;;;;;;;6.22;100.00;98707.94;5012356;28;20048;-47
2022/02/24 09:25:57;;;;;;;0.63;0.35;;;;;;;6.29;100.00;98717.88;5011110;28;20052;-47
2022/02/24 09:29:02;;;;;;;0.98;0.47;;;;;;;6.34;100.00;98708.94;5012273;28;20041;-47
2022/02/24 09:32:06;;;;;;;0.73;0.73;;;;;;;6.36;100.00;98718.28;5011345;28;20053;-47
2022/02/24 09:35:11;;;;;;;0.28;0.28;;;;;;;6.38;100.00;98715.03;5012166;28;20049;-47
2022/02/24 09:38:16;;;;;;;0.17;0.17;;;;;;;6.40;100.00;98713.31;5014005;28;20508;-48
2022/02/24 09:41:23;;;;;;;0.95;0.52;;;;;;;6.40;100.00;98707.03;5030542;28;20052;-48
2022/02/24 09:44:27;;;;;;;1.45;0.35;;;;;;;6.66;100.00;98725.38;5028769;28;20505;-47
2022/02/24 09:47:30;;;;;;;0.10;0.10;;;;;;;6.72;100.00;98712.38;5030981;28;20080;-47
2022/02/24 09:50:33;;;;;;;2.50;0.45;;;;;;;6.79;100.00;98712.00;5031329;28;20060;-47
2022/02/24 09:53:38;;;;;;;0.60;0.60;;;;;;;6.78;100.00;98704.94;5031561;28;20072;-47
2022/02/24 09:56:43;;;;;;;0.15;0.15;;;;;;;6.70;100.00;98708.56;5026957;28;20057;-47
2022/02/24 09:59:46;;;;;;;0.32;0.32;;;;;;;6.79;100.00;98727.84;5011977;28;20386;-47
2022/02/24 10:02:50;;;;;;;0.50;0.50;;;;;;;7.03;100.00;98725.72;5011062;28;20049;-47
2022/02/24 10:05:53;;;;;;;4.68;0.77;;;;;;;7.38;100.00;98718.22;5011486;28;20053;-47
2022/02/24 10:08:57;;;;;;;0.90;0.47;;;;;;;7.65;100.00;98728.94;5010991;28;20048;-47
2022/02/24 10:12:09;;;;;;;11.35;0.40;;;;;;;8.00;100.00;98730.88;5011626;28;20073;-47
2022/02/24 10:15:13;;;;;;;2.65;0.30;;;;;;;8.23;100.00;98727.13;5011446;28;20065;-47
2022/02/24 10:18:19;;;;;;;0.30;0.30;;;;;;;8.42;100.00;98722.84;5011504;28;20524;-47
2022/02/24 10:21:26;;;;;;;0.17;0.17;;;;;;;8.62;100.00;98719.28;5011061;28;20050;-47
2022/02/24 10:24:30;;;;;;;0.25;0.20;;;;;;;8.67;100.00;98724.88;5011432;28;20052;-47
2022/02/24 10:27:36;;;;;;;3.25;0.57;;;;;;;8.71;100.00;98725.41;5011093;28;20065;-47
2022/02/24 10:30:50;;;;;;;13.20;0.95;;;;;;;8.88;100.00;98722.81;5011563;28;20044;-47
2022/02/24 10:34:03;;;;;;;0.60;0.60;;;;;;;8.97;100.00;98728.16;5011330;28;20049;-47
2022/02/24 10:37:11;;;;;;;6.72;0.50;;;;;;;8.95;100.00;98739.75;5011143;28;20048;-47
2022/02/24 10:40:18;;;;;;;1.23;0.35;;;;;;;8.78;100.00;98741.63;5021243;28;20040;-47
2022/02/24 10:43:25;;;;;;;0.20;0.20;;;;;;;8.69;100.00;98744.56;5030514;28;20111;-47
2022/02/24 10:46:29;;;;;;;3.22;0.63;;;;;;;8.77;100.00;98751.19;5030228;28;20064;-46
2022/02/24 10:49:35;;;;;;;1.55;0.63;;;;;;;8.78;100.00;98747.19;5011159;28;20061;-46
2022/02/24 10:52:39;;;;;;;0.75;0.30;;;;;;;8.56;100.00;98760.06;5011275;28;20683;-46
2022/02/24 10:55:51;;;;;;;4.28;0.75;;;;;;;8.46;100.00;98764.25;5010334;28;20090;-46
2022/02/24 10:58:55;;;;;;;3.45;0.40;;;;;;;8.45;100.00;98769.03;5010603;28;20048;-47
2022/02/24 11:01:58;;;;;;;0.50;0.30;;;;;;;8.45;100.00;98776.56;5013800;28;20049;-46
2022/02/24 11:05:01;;;;;;;2.65;0.20;;;;;;;8.43;100.00;98782.63;5014645;28;20057;-46
2022/02/24 11:08:07;;;;;;;0.40;0.40;;;;;;;8.55;100.00;98786.28;5014512;28;20045;-46
2022/02/24 11:11:32;;;;;;;3.90;0.65;;;;;;;8.77;100.00;98787.28;5014576;28;20049;-46
2022/02/24 11:14:40;;;;;;;0.10;0.10;;;;;;;8.85;100.00;98796.72;5013691;28;20060;-46
2022/02/24 11:17:43;;;;;;;0.25;0.25;;;;;;;8.53;100.00;98797.13;5024406;28;20056;-47
2022/02/24 11:20:47;;;;;;;0.95;0.40;;;;;;;8.29;100.00;98802.88;5032981;28;20409;-46
2022/02/24 11:23:53;;;;;;;0.90;0.35;;;;;;;7.92;100.00;98799.09;5034468;28;20409;-46
2022/02/24 11:27:21;;;;;;;0.40;0.40;;;;;;;7.92;100.00;98807.41;5034182;28;20048;-46
2022/02/24 11:30:34;;;;;;;0.20;0.20;;;;;;;7.80;100.00;98819.56;5021768;28;20052;-46
2022/02/24 11:33:37;;;;;;;0.65;0.43;;;;;;;7.85;100.00;98805.78;5033263;28;20056;-46
2022/02/24 11:36:44;;;;;;;3.85;0.75;;;;;;;8.15;100.00;98806.44;5032164;28;20041;-45
2022/02/24 11:39:48;;;;;;;0.20;0.10;;;;;;;8.32;100.00;98813.00;5020117;28;20036;-47
2022/02/24 11:43:00;;;;;;;0.10;0.10;;;;;;;8.27;100.00;98819.25;5032611;28;20056;-48
2022/02/24 11:46:06;;;;;;;4.93;0.52;;;;;;;8.28;100.00;98818.00;5032222;28;20052;-47
2022/02/24 11:49:09;;;;;;;8.27;0.57;;;;;;;8.30;100.00;98832.13;5033019;28;20053;-47
2022/02/24 11:52:43;;;;;;;0.30;0.30;;;;;;;8.36;100.00;98821.88;5020168;28;20072;-46
2022/02/24 11:56:22;;;;;;;0.38;0.38;;;;;;;8.24;100.00;98837.59;5013580;28;20513;-47
2022/02/24 11:59:30;;;;;;;0.10;0.10;;;;;;;7.95;100.00;98842.47;5013446;28;20060;-47
2022/02/24 12:02:45;;;;;;;0.10;0.10;;;;;;;7.99;100.00;98840.28;5013593;28;20057;-46
2022/02/24 12:06:06;;;;;;;0.15;0.15;;;;;;;8.18;100.00;98847.84;5014159;28;20370;-46
2022/02/24 12:09:25;;;;;;;0.20;0.20;;;;;;;8.38;100.00;98853.44;5013574;28;20508;-46
2022/02/24 12:12:29;;;;;;;0.22;0.22;;;;;;;8.52;100.00;98857.41;5012765;28;20057;-47
2022/02/24 12:15:32;;;;;;;0.25;0.25;;;;;;;8.64;100.00;98874.94;5013692;28;20045;-46
2022/02/24 12:18:40;;;;;;;0.13;0.13;;;;;;;8.43;100.00;98854.75;5013314;28;20045;-46
2022/02/24 12:21:47;;;;;;;0.40;0.40;;;;;;;8.26;100.00;98873.97;5013427;28;20045;-47
2022/02/24 12:24:53;;;;;;;0.15;0.15;;;;;;;8.13;100.00;98872.72;5013771;28;20053;-47
2022/02/24 12:28:07;;;;;;;0.82;0.20;;;;;;;7.88;100.00;98884.47;5013595;28;20049;-47
2022/02/24 12:31:18;;;;;;;0.10;0.10;;;;;;;7.81;100.00;98888.38;5013458;28;20049;-46
2022/02/24 12:34:21;;;;;;;0.15;0.15;;;;;;;7.74;100.00;98899.09;5001245;28;20057;-46
2022/02/24 12:37:29;;;;;;;0.17;0.17;;;;;;;7.41;100.00;98911.13;5013238;28;20044;-47
2022/02/24 12:40:42;;;;;;;0.40;0.40;;;;;;;7.13;100.00;98915.41;5025861;28;20516;-45
2022/02/24 12:43:45;;;;;;;9.40;1.05;;;;;;;7.05;100.00;98925.31;5032616;28;20421;-47
2022/02/24 12:46:49;;;;;;;0.20;0.20;;;;;;;7.12;100.00;98918.66;5030577;28;20060;-46
2022/02/24 12:49:54;;;;;;;0.30;0.25;;;;;;;7.14;100.00;98919.72;5013312;28;20557;-47
2022/02/24 12:53:08;;;;;;;0.10;0.10;;;;;;;7.16;100.00;98933.06;5013132;28;20057;-46
2022/02/24 12:56:12;;;;;;;0.38;0.38;;;;;;;7.23;100.00;98922.41;5012979;28;20057;-46
2022/02/24 12:59:17;;;;;;;0.20;0.20;;;;;;;7.38;100.00;98939.81;5000023;28;20045;-47
2022/02/24 13:02:22;;;;;;;0.40;0.40;;;;;;;7.38;100.00;98942.56;5012710;28;20057;-46
2022/02/24 13:05:26;;;;;;;0.13;0.13;;;;;;;7.50;100.00;98941.53;5013136;28;20052;-46
2022/02/24 13:12:01;;;;;;;0.52;0.47;;;;;;;7.92;100.00;98926.59;5011845;28;20053;-46
2022/02/24 13:15:06;;;;;;;0.28;0.28;;;;;;;8.13;100.00;98939.28;5000747;28;20056;-47
2022/02/24 13:18:09;;;;;;;0.38;0.38;;;;;;;8.20;100.00;98920.25;5000166;28;20053;-47
2022/02/24 13:21:14;;;;;;;0.20;0.20;;;;;;;8.24;100.00;98936.66;5019705;28;20625;-47
2022/02/24 13:24:27;;;;;;;0.13;0.13;;;;;;;8.19;100.00;98929.03;5029979;28;20515;-47
2022/02/24 13:27:30;;;;;;;0.30;0.30;;;;;;;8.42;100.00;98927.38;5030504;28;20044;-47
2022/02/24 13:30:36;;;;;;;0.40;0.40;;;;;;;9.02;100.00;98922.59;5011813;28;20052;-47
2022/02/24 13:33:40;;;;;;;0.73;0.73;;;;;;;9.09;100.00;98930.53;5032281;28;20068;-47
2022/02/24 13:36:45;;;;;;;0.88;0.35;;;;;;;8.77;100.00;98967.72;5019399;28;20138;-47
2022/02/24 13:39:49;;;;;;;3.80;1.55;;;;;;;8.42;100.00;98969.75;5016534;28;20044;-47
2022/02/24 13:43:04;;;;;;;1.30;0.50;;;;;;;8.07;100.00;98966.94;4998778;28;20067;-46
2022/02/24 13:46:08;;;;;;;4.63;1.17;;;;;;;8.00;100.00;98966.53;5013973;28;20061;-47
2022/02/24 13:49:14;;;;;;;1.92;0.40;;;;;;;8.01;100.00;98971.59;5024552;28;20049;-47
2022/02/24 13:52:33;;;;;;;3.10;0.93;;;;;;;8.19;100.00;98967.84;5011882;28;20053;-47
2022/02/24 13:55:37;;;;;;;0.75;0.70;;;;;;;8.39;100.00;98976.25;5015853;28;20093;-46
2022/02/24 13:58:43;;;;;;;9.65;1.05;;;;;;;8.52;100.00;98971.16;5011767;28;20035;-47
2022/02/24 14:01:53;;;;;;;0.73;0.63;;;;;;;8.89;100.00;98963.84;5009901;28;20496;-47
2022/02/24 14:04:57;;;;;;;0.32;0.28;;;;;;;9.41;100.00;98966.72;5009138;28;20425;-47
2022/02/24 14:08:03;;;;;;;0.15;0.15;;;;;;;9.38;100.00;98970.47;5019237;28;20048;-48
2022/02/24 14:11:12;;;;;;;0.32;0.20;;;;;;;9.46;100.00;98982.69;5022466;28;20402;-47
2022/02/24 14:14:17;;;;;;;0.30;0.30;;;;;;;9.69;100.00;99001.13;5019091;28;20397;-51
2022/02/24 14:17:20;;;;;;;0.17;0.17;;;;;;;9.99;100.00;98973.84;5019363;28;20071;-51
2022/02/24 14:20:25;;;;;;;1.13;0.60;;;;;;;10.07;100.00;98988.84;5022032;28;20052;-51
2022/02/24 14:23:29;;;;;;;3.55;0.70;;;;;;;10.06;100.00;98999.19;5020052;28;20060;-50
2022/02/24 14:26:33;;;;;;;0.20;0.20;;;;;;;10.12;100.00;99011.16;5018828;28;20061;-50
2022/02/24 14:29:36;;;;;;;0.30;0.20;;;;;;;10.01;100.00;98993.56;5021690;28;20064;-51
2022/02/24 14:32:41;;;;;;;0.15;0.15;;;;;;;9.60;99.46;99015.16;5021155;28;20045;-50
2022/02/24 14:35:45;;;;;;;0.20;0.20;;;;;;;9.13;100.00;99027.50;5018988;28;20064;-50
2022/02/24 14:38:48;;;;;;;0.10;0.10;;;;;;;8.87;100.00;99010.78;5022320;28;20041;-50